createdAt,value
2018-07-31T00:00:28.420Z,23.54
2018-07-31T00:02:56.800Z,23.55
2018-07-31T00:05:25.259Z,23.52
2018-07-31T00:07:53.950Z,23.45
2018-07-31T00:10:22.335Z,23.50
2018-07-31T00:12:50.719Z,23.54
2018-07-31T00:15:19.168Z,23.46
2018-07-31T00:17:47.570Z,23.37
2018-07-31T00:20:16.026Z,23.39
2018-07-31T00:22:44.397Z,23.42
2018-07-31T00:25:12.800Z,23.37
2018-07-31T00:27:41.238Z,23.33
2018-07-31T00:30:10.131Z,23.16
2018-07-31T00:32:38.519Z,23.40
2018-07-31T00:35:07.110Z,23.43
2018-07-31T00:37:35.496Z,23.34
2018-07-31T00:40:04.020Z,23.26
2018-07-31T00:42:32.485Z,23.20
2018-07-31T00:45:00.870Z,23.14
2018-07-31T00:47:29.342Z,23.07
2018-07-31T00:49:57.697Z,23.03
2018-07-31T00:52:26.070Z,23.01
2018-07-31T00:54:54.467Z,23.02
2018-07-31T00:57:22.876Z,23.03
2018-07-31T00:59:51.376Z,23.06
2018-07-31T01:02:19.783Z,23.01
2018-07-31T01:04:48.163Z,22.97
2018-07-31T01:07:16.596Z,22.98
2018-07-31T01:09:45.044Z,22.91
2018-07-31T01:12:13.539Z,22.89
2018-07-31T01:14:41.965Z,22.91
2018-07-31T01:17:10.401Z,22.88
2018-07-31T01:19:38.794Z,22.83
2018-07-31T01:22:08.151Z,22.81
2018-07-31T01:24:36.544Z,22.73
2018-07-31T01:27:05.028Z,22.70
2018-07-31T01:29:33.421Z,22.66
2018-07-31T01:32:01.808Z,22.58
2018-07-31T01:34:30.239Z,22.60
2018-07-31T01:36:58.647Z,22.55
2018-07-31T01:39:27.039Z,22.54
2018-07-31T01:41:55.404Z,22.51
2018-07-31T01:44:23.785Z,22.45
2018-07-31T01:46:52.203Z,22.40
2018-07-31T01:49:20.582Z,22.44
2018-07-31T01:51:48.990Z,22.42
2018-07-31T01:54:17.411Z,22.49
2018-07-31T01:56:45.820Z,22.41
2018-07-31T01:59:14.254Z,22.40
2018-07-31T02:01:42.688Z,22.40
2018-07-31T02:04:11.142Z,22.37
2018-07-31T02:06:39.521Z,22.32
2018-07-31T02:09:08.464Z,22.16
2018-07-31T02:11:36.833Z,22.20
2018-07-31T02:14:05.284Z,22.16
2018-07-31T02:16:33.712Z,22.11
2018-07-31T02:19:02.076Z,22.12
2018-07-31T02:21:30.464Z,22.07
2018-07-31T02:23:58.845Z,22.00
2018-07-31T02:26:27.248Z,21.99
2018-07-31T02:28:55.620Z,22.00
2018-07-31T02:31:24.050Z,21.98
2018-07-31T02:33:52.488Z,22.02
2018-07-31T02:36:20.939Z,22.06
2018-07-31T02:38:49.370Z,22.05
2018-07-31T02:41:17.770Z,22.05
2018-07-31T02:43:46.146Z,21.95
2018-07-31T02:46:14.584Z,21.88
2018-07-31T02:48:42.989Z,21.85
2018-07-31T02:51:11.409Z,21.86
2018-07-31T02:53:39.850Z,21.82
2018-07-31T02:56:08.270Z,21.78
2018-07-31T02:58:36.728Z,21.73
2018-07-31T03:01:05.192Z,21.65
2018-07-31T03:03:33.627Z,21.64
2018-07-31T03:06:01.992Z,21.63
2018-07-31T03:08:30.393Z,21.66
2018-07-31T03:10:58.767Z,21.54
2018-07-31T03:13:27.145Z,21.54
2018-07-31T03:15:55.555Z,21.56
2018-07-31T03:18:23.937Z,21.52
2018-07-31T03:20:52.353Z,21.47
2018-07-31T03:23:20.782Z,21.54
2018-07-31T03:25:49.131Z,21.53
2018-07-31T03:28:17.587Z,21.49
2018-07-31T03:30:45.941Z,21.43
2018-07-31T03:33:14.389Z,21.35
2018-07-31T03:35:42.848Z,21.31
2018-07-31T03:38:11.215Z,21.29
2018-07-31T03:40:40.627Z,21.27
2018-07-31T03:43:09.020Z,21.31
2018-07-31T03:45:37.431Z,21.36
2018-07-31T03:48:05.900Z,21.40
2018-07-31T03:50:34.324Z,21.36
2018-07-31T03:53:02.714Z,21.29
2018-07-31T03:55:31.104Z,21.24
2018-07-31T03:57:59.542Z,21.15
2018-07-31T04:00:27.991Z,20.95
2018-07-31T04:02:56.409Z,21.20
2018-07-31T04:05:24.838Z,21.22
2018-07-31T04:07:53.299Z,21.22
2018-07-31T04:10:21.731Z,21.24
2018-07-31T04:12:50.145Z,21.23
2018-07-31T04:15:18.560Z,21.21
2018-07-31T04:17:53.401Z,21.27
2018-07-31T04:20:22.141Z,21.30
2018-07-31T04:22:51.025Z,21.30
2018-07-31T04:25:19.433Z,21.21
2018-07-31T04:27:47.918Z,20.96
2018-07-31T04:30:16.409Z,20.96
2018-07-31T04:32:44.932Z,20.92
2018-07-31T04:35:13.438Z,20.93
2018-07-31T04:37:42.319Z,20.89
2018-07-31T04:40:10.731Z,20.96
2018-07-31T04:42:39.154Z,21.02
2018-07-31T04:45:09.004Z,21.00
2018-07-31T04:47:38.071Z,21.03
2018-07-31T04:50:06.676Z,21.15
2018-07-31T04:52:35.061Z,21.27
2018-07-31T04:55:04.371Z,21.31
2018-07-31T04:57:32.780Z,21.17
2018-07-31T05:00:01.279Z,21.09
2018-07-31T05:02:29.691Z,21.03
2018-07-31T05:04:58.126Z,21.07
2018-07-31T05:07:26.499Z,21.07
2018-07-31T05:09:54.946Z,21.14
2018-07-31T05:12:23.524Z,21.19
2018-07-31T05:14:51.925Z,21.21
2018-07-31T05:17:21.136Z,21.29
2018-07-31T05:19:49.539Z,21.35
2018-07-31T05:22:17.955Z,21.40
2018-07-31T05:24:46.343Z,21.43
2018-07-31T05:27:14.749Z,21.45
2018-07-31T05:29:43.154Z,21.46
2018-07-31T05:32:11.565Z,21.43
2018-07-31T05:34:40.081Z,21.47
2018-07-31T05:37:08.485Z,21.44
2018-07-31T05:39:36.892Z,21.43
2018-07-31T05:42:07.936Z,21.43
2018-07-31T05:44:36.448Z,21.46
2018-07-31T05:47:04.863Z,21.53
2018-07-31T05:49:33.262Z,21.61
2018-07-31T05:52:01.745Z,21.67
2018-07-31T05:54:30.117Z,21.74
2018-07-31T05:56:58.593Z,21.81
2018-07-31T05:59:27.236Z,21.91
2018-07-31T06:01:55.976Z,22.01
2018-07-31T06:04:24.780Z,22.14
2018-07-31T06:06:53.182Z,22.21
2018-07-31T06:09:21.607Z,22.33
2018-07-31T06:11:50.019Z,22.39
2018-07-31T06:14:18.404Z,22.45
2018-07-31T06:16:46.828Z,22.48
2018-07-31T06:19:15.228Z,22.54
2018-07-31T06:21:43.663Z,22.55
2018-07-31T06:24:12.059Z,22.55
2018-07-31T06:26:40.692Z,22.59
2018-07-31T06:29:09.140Z,22.64
2018-07-31T06:31:37.610Z,22.49
2018-07-31T06:34:06.202Z,22.68
2018-07-31T06:36:34.672Z,22.68
2018-07-31T06:39:03.254Z,22.71
2018-07-31T06:41:33.101Z,22.72
2018-07-31T06:44:01.595Z,22.75
2018-07-31T06:46:30.593Z,22.79
2018-07-31T06:48:58.956Z,22.82
2018-07-31T06:51:27.704Z,22.81
2018-07-31T06:53:57.771Z,22.83
2018-07-31T06:56:26.199Z,22.85
2018-07-31T06:58:54.780Z,22.87
2018-07-31T07:01:23.241Z,22.89
2018-07-31T07:03:51.712Z,22.91
2018-07-31T07:06:20.060Z,22.90
2018-07-31T07:08:48.803Z,22.92
2018-07-31T07:11:17.245Z,22.94
2018-07-31T07:13:45.645Z,22.68
2018-07-31T07:16:14.140Z,22.98
2018-07-31T07:18:42.548Z,23.01
2018-07-31T07:21:10.930Z,23.04
2018-07-31T07:23:39.296Z,23.07
2018-07-31T07:26:07.717Z,23.13
2018-07-31T07:28:36.084Z,23.16
2018-07-31T07:31:04.482Z,23.20
2018-07-31T07:33:32.914Z,23.25
2018-07-31T07:36:01.304Z,23.27
2018-07-31T07:38:29.722Z,23.28
2018-07-31T07:40:58.193Z,23.31
2018-07-31T07:43:26.622Z,23.36
2018-07-31T07:45:55.031Z,23.43
2018-07-31T07:48:23.491Z,23.48
2018-07-31T07:50:51.853Z,23.53
2018-07-31T07:53:21.323Z,23.60
2018-07-31T07:55:49.734Z,23.68
2018-07-31T07:58:18.194Z,23.75
2018-07-31T08:00:46.637Z,23.84
2018-07-31T08:03:15.080Z,23.90
2018-07-31T08:05:44.042Z,23.97
2018-07-31T08:08:12.463Z,24.05
2018-07-31T08:10:42.899Z,24.11
2018-07-31T08:13:11.678Z,24.12
2018-07-31T08:15:40.121Z,24.10
2018-07-31T08:18:08.536Z,24.11
2018-07-31T08:20:36.899Z,24.11
2018-07-31T08:23:05.490Z,24.09
2018-07-31T08:25:33.920Z,24.03
2018-07-31T08:28:02.369Z,24.00
2018-07-31T08:30:30.764Z,23.98
2018-07-31T08:32:59.220Z,24.00
2018-07-31T08:35:28.212Z,24.04
2018-07-31T08:37:57.064Z,24.08
2018-07-31T08:40:25.459Z,24.19
2018-07-31T08:42:53.943Z,24.27
2018-07-31T08:45:22.413Z,24.35
2018-07-31T08:47:50.877Z,24.45
2018-07-31T08:50:19.311Z,24.56
2018-07-31T08:52:47.740Z,24.72
2018-07-31T08:55:16.265Z,24.81
2018-07-31T08:57:44.647Z,24.84
2018-07-31T09:00:13.103Z,24.98
2018-07-31T09:02:41.522Z,25.10
2018-07-31T09:05:09.965Z,25.12
2018-07-31T09:07:38.411Z,25.08
2018-07-31T09:10:06.968Z,25.37
2018-07-31T09:12:36.099Z,25.50
2018-07-31T09:15:04.642Z,25.70
2018-07-31T09:17:33.101Z,25.82
2018-07-31T09:20:01.450Z,25.77
2018-07-31T09:22:29.864Z,25.78
2018-07-31T09:24:58.246Z,25.78
2018-07-31T09:27:27.715Z,25.85
2018-07-31T09:29:56.148Z,25.91
2018-07-31T09:32:29.912Z,25.96
2018-07-31T09:34:58.360Z,26.08
2018-07-31T09:37:27.421Z,26.11
2018-07-31T09:39:55.860Z,26.40
2018-07-31T09:42:24.249Z,26.49
2018-07-31T09:44:52.654Z,26.55
2018-07-31T09:47:21.130Z,26.53
2018-07-31T09:49:49.568Z,26.51
2018-07-31T09:52:17.946Z,26.58
2018-07-31T09:54:47.584Z,26.64
2018-07-31T09:57:16.039Z,26.76
2018-07-31T09:59:44.431Z,26.84
2018-07-31T10:02:12.822Z,26.79
2018-07-31T10:04:41.389Z,26.90
2018-07-31T10:07:09.823Z,26.90
2018-07-31T10:09:38.263Z,26.90
2018-07-31T10:12:06.753Z,26.77
2018-07-31T10:14:35.171Z,26.66
2018-07-31T10:17:04.319Z,26.57
2018-07-31T10:19:32.783Z,26.79
2018-07-31T10:22:01.213Z,26.75
2018-07-31T10:24:29.614Z,27.01
2018-07-31T10:26:58.026Z,27.20
2018-07-31T10:29:26.410Z,27.19
2018-07-31T10:31:54.846Z,27.25
2018-07-31T10:34:24.257Z,27.36
2018-07-31T10:36:53.032Z,27.40
2018-07-31T10:39:21.482Z,27.32
2018-07-31T10:41:49.898Z,27.23
2018-07-31T10:44:18.294Z,27.15
2018-07-31T10:46:46.720Z,27.11
2018-07-31T10:49:15.145Z,27.34
2018-07-31T10:51:43.561Z,27.42
2018-07-31T10:54:12.000Z,27.53
2018-07-31T10:56:40.393Z,27.51
2018-07-31T10:59:09.121Z,27.62
2018-07-31T11:01:37.494Z,27.66
2018-07-31T11:04:06.227Z,27.65
2018-07-31T11:06:34.662Z,27.60
2018-07-31T11:09:03.882Z,27.74
2018-07-31T11:11:32.809Z,27.63
2018-07-31T11:14:01.841Z,27.87
2018-07-31T11:16:30.281Z,27.92
2018-07-31T11:18:58.684Z,27.99
2018-07-31T11:21:27.056Z,27.95
2018-07-31T11:23:55.479Z,27.98
2018-07-31T11:26:24.481Z,27.85
2018-07-31T11:28:52.868Z,27.93
2018-07-31T11:31:21.321Z,27.83
2018-07-31T11:33:50.114Z,27.77
2018-07-31T11:36:18.789Z,27.96
2018-07-31T11:38:47.497Z,28.02
2018-07-31T11:41:16.044Z,28.02
2018-07-31T11:43:44.455Z,28.03
2018-07-31T11:46:12.929Z,28.04
2018-07-31T11:48:42.388Z,28.19
2018-07-31T11:51:10.771Z,28.31
2018-07-31T11:53:39.125Z,28.14
2018-07-31T11:56:07.614Z,27.15
2018-07-31T11:58:36.064Z,28.15
2018-07-31T12:01:04.547Z,28.51
2018-07-31T12:03:32.980Z,28.57
2018-07-31T12:06:01.451Z,28.62
2018-07-31T12:08:33.352Z,28.67
2018-07-31T12:11:01.860Z,28.79
2018-07-31T12:13:30.424Z,28.90
2018-07-31T12:15:58.990Z,28.71
2018-07-31T12:18:27.541Z,28.62
2018-07-31T12:20:55.971Z,28.62
2018-07-31T12:23:24.947Z,29.17
2018-07-31T12:25:54.409Z,29.57
2018-07-31T12:28:22.862Z,29.74
2018-07-31T12:30:51.567Z,30.08
2018-07-31T12:33:20.012Z,30.37
2018-07-31T12:35:48.422Z,30.18
2018-07-31T12:38:17.596Z,30.05
2018-07-31T12:40:45.938Z,30.08
2018-07-31T12:43:14.362Z,30.21
2018-07-31T12:45:42.807Z,30.63
2018-07-31T12:48:11.302Z,31.09
2018-07-31T12:50:40.599Z,30.98
2018-07-31T12:53:09.014Z,30.13
2018-07-31T12:55:37.439Z,29.93
2018-07-31T12:58:05.861Z,29.69
2018-07-31T13:00:35.167Z,29.28
2018-07-31T13:03:03.616Z,29.42
2018-07-31T13:05:32.076Z,30.08
2018-07-31T13:08:01.055Z,29.87
2018-07-31T13:10:29.554Z,30.09
2018-07-31T13:12:58.494Z,29.99
2018-07-31T13:15:26.944Z,30.55
2018-07-31T13:17:56.115Z,30.30
2018-07-31T13:20:24.595Z,29.40
2018-07-31T13:22:53.052Z,29.04
2018-07-31T13:25:22.401Z,28.96
2018-07-31T13:27:51.185Z,29.88
2018-07-31T13:30:19.600Z,30.32
2018-07-31T13:32:48.040Z,30.75
2018-07-31T13:35:16.572Z,30.86
2018-07-31T13:37:45.339Z,31.15
2018-07-31T13:40:14.118Z,31.65
2018-07-31T13:42:42.572Z,31.91
2018-07-31T13:45:10.988Z,31.54
2018-07-31T13:47:39.404Z,31.39
2018-07-31T13:50:07.883Z,31.64
2018-07-31T13:52:36.346Z,31.23
2018-07-31T13:55:05.057Z,31.17
2018-07-31T13:57:33.582Z,31.21
2018-07-31T14:00:02.041Z,31.43
2018-07-31T14:02:31.424Z,31.30
2018-07-31T14:05:00.744Z,31.16
2018-07-31T14:07:29.194Z,30.75
2018-07-31T14:09:57.612Z,31.00
2018-07-31T14:12:26.074Z,30.82
2018-07-31T14:14:54.525Z,30.94
2018-07-31T14:17:22.944Z,30.81
2018-07-31T14:19:51.333Z,30.50
2018-07-31T14:22:19.732Z,29.92
2018-07-31T14:24:48.764Z,29.50
2018-07-31T14:27:18.106Z,29.33
2018-07-31T14:29:46.544Z,29.22
2018-07-31T14:32:14.943Z,29.15
2018-07-31T14:34:43.397Z,29.49
2018-07-31T14:37:11.811Z,29.88
2018-07-31T14:39:40.224Z,30.29
2018-07-31T14:42:09.104Z,30.09
2018-07-31T14:44:37.572Z,29.92
2018-07-31T14:47:06.021Z,30.22
2018-07-31T14:49:34.455Z,30.30
2018-07-31T14:52:02.837Z,30.50
2018-07-31T14:54:31.239Z,30.67
2018-07-31T14:56:59.761Z,30.70
2018-07-31T14:59:28.779Z,30.82
2018-07-31T15:01:57.187Z,30.69
2018-07-31T15:04:25.592Z,30.65
2018-07-31T15:06:54.006Z,30.65
2018-07-31T15:09:22.408Z,30.79
2018-07-31T15:11:50.927Z,30.83
2018-07-31T15:14:19.325Z,30.99
2018-07-31T15:16:47.789Z,30.96
2018-07-31T15:19:17.140Z,30.88
2018-07-31T15:21:45.585Z,30.52
2018-07-31T15:24:16.216Z,30.01
2018-07-31T15:26:44.671Z,29.94
2018-07-31T15:29:13.097Z,30.06
2018-07-31T15:31:41.559Z,30.35
2018-07-31T15:34:09.958Z,30.46
2018-07-31T15:36:38.444Z,30.51
2018-07-31T15:39:11.233Z,30.63
2018-07-31T15:41:40.876Z,30.48
2018-07-31T15:44:09.499Z,30.30
2018-07-31T15:46:37.916Z,30.36
2018-07-31T15:49:06.470Z,30.08
2018-07-31T15:51:34.876Z,29.87
2018-07-31T15:54:03.326Z,29.83
2018-07-31T15:56:31.718Z,29.76
2018-07-31T15:59:00.144Z,29.70
2018-07-31T16:01:29.415Z,29.54
2018-07-31T16:03:58.617Z,29.49
2018-07-31T16:06:26.995Z,29.34
2018-07-31T16:08:55.482Z,29.32
2018-07-31T16:11:23.904Z,29.28
2018-07-31T16:13:52.631Z,29.40
2018-07-31T16:16:21.065Z,29.40
2018-07-31T16:18:49.495Z,29.38
2018-07-31T16:21:18.560Z,29.26
2018-07-31T16:23:46.966Z,29.12
2018-07-31T16:26:15.432Z,29.05
2018-07-31T16:28:43.841Z,28.98
2018-07-31T16:31:12.286Z,29.01
2018-07-31T16:33:40.784Z,29.00
2018-07-31T16:36:09.253Z,29.00
2018-07-31T16:38:37.628Z,28.96
2018-07-31T16:41:06.030Z,28.99
2018-07-31T16:43:34.392Z,29.25
2018-07-31T16:46:03.167Z,29.41
2018-07-31T16:48:31.620Z,29.44
2018-07-31T16:51:00.065Z,29.45
2018-07-31T16:53:28.463Z,29.40
2018-07-31T16:55:56.833Z,29.35
2018-07-31T16:58:25.277Z,29.29
2018-07-31T17:00:53.685Z,29.27
2018-07-31T17:03:22.392Z,29.10
2018-07-31T17:05:50.818Z,28.90
2018-07-31T17:08:19.240Z,29.05
2018-07-31T17:10:47.691Z,29.27
2018-07-31T17:13:16.098Z,29.48
2018-07-31T17:15:44.513Z,29.57
2018-07-31T17:18:13.011Z,29.61
2018-07-31T17:20:41.431Z,29.58
2018-07-31T17:23:09.841Z,29.57
2018-07-31T17:25:38.292Z,29.45
2018-07-31T17:28:06.682Z,29.25
2018-07-31T17:30:35.121Z,29.14
2018-07-31T17:33:05.824Z,29.03
2018-07-31T17:35:34.419Z,28.97
2018-07-31T17:38:02.869Z,28.99
2018-07-31T17:40:31.265Z,28.92
2018-07-31T17:42:59.672Z,28.92
2018-07-31T17:45:28.088Z,28.74
2018-07-31T17:47:56.472Z,28.57
2018-07-31T17:50:25.007Z,28.50
2018-07-31T17:52:53.512Z,28.41
2018-07-31T17:55:21.964Z,28.38
2018-07-31T17:57:50.360Z,28.33
2018-07-31T18:00:18.822Z,28.29
2018-07-31T18:02:47.248Z,28.28
2018-07-31T18:05:15.677Z,28.25
2018-07-31T18:07:44.186Z,28.19
2018-07-31T18:10:12.595Z,28.19
2018-07-31T18:12:41.000Z,28.00
2018-07-31T18:15:09.425Z,27.98
2018-07-31T18:17:37.919Z,27.90
2018-07-31T18:20:06.486Z,27.85
2018-07-31T18:22:34.884Z,27.75
2018-07-31T18:25:03.401Z,27.73
2018-07-31T18:27:31.788Z,27.62
2018-07-31T18:30:00.231Z,27.49
2018-07-31T18:32:28.824Z,27.27
2018-07-31T18:34:57.313Z,27.20
2018-07-31T18:37:25.786Z,27.12
2018-07-31T18:39:54.494Z,27.06
2018-07-31T18:42:22.968Z,27.03
2018-07-31T18:44:51.411Z,27.01
2018-07-31T18:47:19.855Z,27.00
2018-07-31T18:49:48.281Z,27.05
2018-07-31T18:52:16.702Z,27.03
2018-07-31T18:54:45.143Z,26.94
2018-07-31T18:57:14.132Z,26.95
2018-07-31T18:59:42.817Z,26.86
2018-07-31T19:02:11.237Z,26.85
2018-07-31T19:04:39.695Z,26.86
2018-07-31T19:07:08.092Z,26.78
2018-07-31T19:09:36.567Z,26.69
2018-07-31T19:12:05.096Z,26.64
2018-07-31T19:14:33.532Z,26.49
2018-07-31T19:17:02.054Z,26.43
2018-07-31T19:19:30.573Z,26.31
2018-07-31T19:21:59.062Z,26.26
2018-07-31T19:24:27.920Z,26.21
2018-07-31T19:26:56.392Z,26.17
2018-07-31T19:29:24.773Z,26.16
2018-07-31T19:31:53.169Z,26.10
2018-07-31T19:34:21.614Z,25.98
2018-07-31T19:36:50.026Z,25.96
2018-07-31T19:39:18.445Z,25.90
2018-07-31T19:41:46.959Z,26.02
2018-07-31T19:44:15.364Z,25.91
2018-07-31T19:46:43.824Z,25.92
2018-07-31T19:49:12.267Z,25.92
2018-07-31T19:51:40.706Z,25.84
2018-07-31T19:54:09.168Z,25.64
2018-07-31T19:56:37.591Z,25.73
2018-07-31T19:59:06.356Z,25.71
2018-07-31T20:01:34.939Z,25.59
2018-07-31T20:04:03.399Z,25.58
2018-07-31T20:06:31.960Z,25.58
2018-07-31T20:09:00.383Z,25.52
2018-07-31T20:11:28.860Z,25.51
2018-07-31T20:13:57.297Z,25.52
2018-07-31T20:16:25.929Z,25.56
2018-07-31T20:18:54.333Z,25.56
2018-07-31T20:21:22.798Z,25.43
2018-07-31T20:23:51.225Z,25.43
2018-07-31T20:26:19.671Z,25.46
2018-07-31T20:28:48.139Z,25.45
2018-07-31T20:31:16.585Z,25.44
2018-07-31T20:33:45.000Z,25.37
2018-07-31T20:36:14.318Z,25.40
2018-07-31T20:38:42.760Z,25.37
2018-07-31T20:41:11.175Z,25.31
2018-07-31T20:43:39.638Z,25.23
2018-07-31T20:46:08.143Z,25.11
2018-07-31T20:48:36.585Z,25.00
2018-07-31T20:51:05.047Z,24.92
2018-07-31T20:53:33.484Z,24.89
2018-07-31T20:56:01.856Z,24.81
2018-07-31T20:58:30.272Z,24.89
2018-07-31T21:00:58.997Z,24.92
2018-07-31T21:03:27.420Z,24.92
2018-07-31T21:05:55.840Z,24.93
2018-07-31T21:08:24.265Z,24.92
2018-07-31T21:10:52.740Z,24.73
2018-07-31T21:13:21.143Z,24.67
2018-07-31T21:15:49.601Z,24.73
2018-07-31T21:18:18.068Z,24.78
2018-07-31T21:20:46.479Z,24.77
2018-07-31T21:23:14.874Z,24.73
2018-07-31T21:25:43.360Z,24.70
2018-07-31T21:28:11.760Z,24.65
2018-07-31T21:30:40.217Z,24.62
2018-07-31T21:33:08.615Z,24.60
2018-07-31T21:35:37.025Z,24.62
2018-07-31T21:38:05.526Z,24.55
2018-07-31T21:40:33.907Z,24.51
2018-07-31T21:43:02.308Z,24.50
2018-07-31T21:45:30.687Z,24.41
2018-07-31T21:47:59.124Z,24.25
2018-07-31T21:50:27.550Z,24.24
2018-07-31T21:52:55.968Z,24.20
2018-07-31T21:55:24.594Z,24.11
2018-07-31T21:57:52.948Z,23.91
2018-07-31T22:00:21.370Z,23.88
2018-07-31T22:02:49.797Z,23.77
2018-07-31T22:05:18.210Z,23.84
2018-07-31T22:07:46.669Z,23.79
2018-07-31T22:10:15.064Z,23.85
2018-07-31T22:12:43.488Z,23.78
2018-07-31T22:15:11.862Z,23.65
2018-07-31T22:17:40.297Z,23.57
2018-07-31T22:20:08.726Z,23.62
2018-07-31T22:22:37.150Z,23.66
2018-07-31T22:25:05.697Z,23.65
2018-07-31T22:27:34.129Z,23.54
2018-07-31T22:30:02.564Z,23.47
2018-07-31T22:32:30.996Z,23.39
2018-07-31T22:34:59.373Z,23.39
2018-07-31T22:37:27.891Z,23.34
2018-07-31T22:39:56.332Z,23.33
2018-07-31T22:42:24.752Z,23.26
2018-07-31T22:44:53.824Z,23.22
2018-07-31T22:47:22.704Z,23.31
2018-07-31T22:49:51.125Z,23.31
2018-07-31T22:52:19.760Z,23.37
2018-07-31T22:54:48.155Z,23.30
2018-07-31T22:57:17.619Z,23.31
2018-07-31T22:59:46.060Z,23.28
2018-07-31T23:02:14.471Z,23.28
2018-07-31T23:04:42.891Z,23.28
2018-07-31T23:07:12.161Z,23.24
2018-07-31T23:09:40.529Z,23.21
2018-07-31T23:12:08.922Z,23.16
2018-07-31T23:14:37.377Z,23.16
2018-07-31T23:17:05.828Z,23.19
2018-07-31T23:19:34.275Z,23.17
2018-07-31T23:22:02.680Z,23.05
2018-07-31T23:24:31.110Z,23.05
2018-07-31T23:26:59.508Z,23.05
2018-07-31T23:29:27.916Z,23.02
2018-07-31T23:31:56.331Z,22.94
2018-07-31T23:34:24.749Z,22.87
2018-07-31T23:36:53.138Z,22.88
2018-07-31T23:39:21.563Z,22.88
2018-07-31T23:41:49.971Z,22.87
2018-07-31T23:44:18.336Z,22.87
2018-07-31T23:46:46.726Z,22.87
2018-07-31T23:49:15.160Z,22.87
2018-07-31T23:51:43.554Z,22.84
2018-07-31T23:54:12.000Z,22.78
2018-07-31T23:56:40.468Z,22.61
2018-07-31T23:59:08.854Z,22.62
